sensor_id;sensor_type;location;lat;lon;timestamp;temperature;humidity
43963;DHT22;29622;45.534;9.242;2022-09-09T00:02:28;25.30;51.50
43963;DHT22;29622;45.534;9.242;2022-09-09T00:07:34;25.40;51.80
43963;DHT22;29622;45.534;9.242;2022-09-09T00:13:02;25.40;51.80
43963;DHT22;29622;45.534;9.242;2022-09-09T00:18:29;25.40;52.30
43963;DHT22;29622;45.534;9.242;2022-09-09T00:23:35;25.40;52.30
43963;DHT22;29622;45.534;9.242;2022-09-09T00:29:11;25.50;52.10
43963;DHT22;29622;45.534;9.242;2022-09-09T00:34:18;25.50;52.30
43963;DHT22;29622;45.534;9.242;2022-09-09T00:39:34;25.40;52.20
43963;DHT22;29622;45.534;9.242;2022-09-09T00:44:37;25.40;52.30
43963;DHT22;29622;45.534;9.242;2022-09-09T00:55:28;25.50;52.30
43963;DHT22;29622;45.534;9.242;2022-09-09T01:00:46;25.50;52.40
43963;DHT22;29622;45.534;9.242;2022-09-09T01:06:11;25.40;52.40
43963;DHT22;29622;45.534;9.242;2022-09-09T01:11:24;25.30;52.50
43963;DHT22;29622;45.534;9.242;2022-09-09T01:16:29;25.30;52.40
43963;DHT22;29622;45.534;9.242;2022-09-09T01:21:50;25.30;52.30
43963;DHT22;29622;45.534;9.242;2022-09-09T01:27:00;25.40;52.40
43963;DHT22;29622;45.534;9.242;2022-09-09T01:37:41;25.40;52.20
43963;DHT22;29622;45.534;9.242;2022-09-09T01:42:42;25.30;52.10
43963;DHT22;29622;45.534;9.242;2022-09-09T01:47:44;25.20;52.30
43963;DHT22;29622;45.534;9.242;2022-09-09T01:53:06;25.10;52.50
43963;DHT22;29622;45.534;9.242;2022-09-09T01:58:20;25.00;52.50
43963;DHT22;29622;45.534;9.242;2022-09-09T02:03:29;25.00;52.70
43963;DHT22;29622;45.534;9.242;2022-09-09T02:08:47;25.00;52.70
43963;DHT22;29622;45.534;9.242;2022-09-09T02:14:00;25.00;52.80
43963;DHT22;29622;45.534;9.242;2022-09-09T02:19:08;25.00;52.80
43963;DHT22;29622;45.534;9.242;2022-09-09T02:24:25;25.00;52.90
43963;DHT22;29622;45.534;9.242;2022-09-09T02:29:40;25.00;52.80
43963;DHT22;29622;45.534;9.242;2022-09-09T02:34:50;25.00;53.30
43963;DHT22;29622;45.534;9.242;2022-09-09T02:39:52;25.00;52.70
43963;DHT22;29622;45.534;9.242;2022-09-09T02:44:55;24.90;52.80
43963;DHT22;29622;45.534;9.242;2022-09-09T02:55:23;24.90;52.90
43963;DHT22;29622;45.534;9.242;2022-09-09T03:00:27;24.90;52.90
43963;DHT22;29622;45.534;9.242;2022-09-09T03:05:32;24.90;52.80
43963;DHT22;29622;45.534;9.242;2022-09-09T03:10:33;24.90;52.80
43963;DHT22;29622;45.534;9.242;2022-09-09T03:15:35;24.80;52.70
43963;DHT22;29622;45.534;9.242;2022-09-09T03:20:36;24.80;52.70
43963;DHT22;29622;45.534;9.242;2022-09-09T03:25:37;24.70;52.70
43963;DHT22;29622;45.534;9.242;2022-09-09T03:30:39;24.50;52.80
43963;DHT22;29622;45.534;9.242;2022-09-09T03:35:45;24.40;53.10
43963;DHT22;29622;45.534;9.242;2022-09-09T03:40:49;24.30;53.40
43963;DHT22;29622;45.534;9.242;2022-09-09T03:45:52;24.10;53.70
43963;DHT22;29622;45.534;9.242;2022-09-09T03:50:54;24.00;53.90
43963;DHT22;29622;45.534;9.242;2022-09-09T03:56:01;24.00;54.30
43963;DHT22;29622;45.534;9.242;2022-09-09T04:01:05;24.00;54.60
43963;DHT22;29622;45.534;9.242;2022-09-09T04:06:09;24.00;54.80
43963;DHT22;29622;45.534;9.242;2022-09-09T04:11:11;24.00;54.90
43963;DHT22;29622;45.534;9.242;2022-09-09T04:16:13;23.90;55.10
43963;DHT22;29622;45.534;9.242;2022-09-09T04:21:15;23.80;55.40
43963;DHT22;29622;45.534;9.242;2022-09-09T04:26:16;23.80;55.60
43963;DHT22;29622;45.534;9.242;2022-09-09T04:31:21;23.80;55.80
43963;DHT22;29622;45.534;9.242;2022-09-09T04:36:25;23.80;55.90
43963;DHT22;29622;45.534;9.242;2022-09-09T04:41:31;23.80;56.00
43963;DHT22;29622;45.534;9.242;2022-09-09T04:46:33;23.90;56.10
43963;DHT22;29622;45.534;9.242;2022-09-09T04:51:35;23.90;56.30
43963;DHT22;29622;45.534;9.242;2022-09-09T04:56:36;23.70;56.90
43963;DHT22;29622;45.534;9.242;2022-09-09T05:01:36;23.60;57.00
43963;DHT22;29622;45.534;9.242;2022-09-09T05:06:39;23.70;57.40
43963;DHT22;29622;45.534;9.242;2022-09-09T05:11:40;23.90;57.40
43963;DHT22;29622;45.534;9.242;2022-09-09T05:16:50;23.80;57.50
43963;DHT22;29622;45.534;9.242;2022-09-09T05:21:52;23.90;57.50
43963;DHT22;29622;45.534;9.242;2022-09-09T05:26:57;23.90;57.60
43963;DHT22;29622;45.534;9.242;2022-09-09T05:32:00;24.00;57.30
43963;DHT22;29622;45.534;9.242;2022-09-09T05:37:01;23.70;57.60
43963;DHT22;29622;45.534;9.242;2022-09-09T05:42:02;23.30;57.90
43963;DHT22;29622;45.534;9.242;2022-09-09T05:47:05;22.90;58.10
43963;DHT22;29622;45.534;9.242;2022-09-09T05:52:06;22.60;58.30
43963;DHT22;29622;45.534;9.242;2022-09-09T05:57:07;22.70;58.20
43963;DHT22;29622;45.534;9.242;2022-09-09T06:02:08;22.80;57.80
43963;DHT22;29622;45.534;9.242;2022-09-09T06:07:11;22.80;57.60
43963;DHT22;29622;45.534;9.242;2022-09-09T06:12:12;23.00;57.70
43963;DHT22;29622;45.534;9.242;2022-09-09T06:17:13;23.20;56.90
43963;DHT22;29622;45.534;9.242;2022-09-09T06:22:13;23.30;56.60
43963;DHT22;29622;45.534;9.242;2022-09-09T06:27:15;23.10;56.50
43963;DHT22;29622;45.534;9.242;2022-09-09T06:32:16;23.10;56.80
43963;DHT22;29622;45.534;9.242;2022-09-09T06:37:18;23.30;56.70
43963;DHT22;29622;45.534;9.242;2022-09-09T06:42:22;23.50;56.30
43963;DHT22;29622;45.534;9.242;2022-09-09T06:47:23;23.60;56.00
43963;DHT22;29622;45.534;9.242;2022-09-09T06:52:25;23.50;55.90
43963;DHT22;29622;45.534;9.242;2022-09-09T06:57:27;23.50;55.80
43963;DHT22;29622;45.534;9.242;2022-09-09T07:02:28;23.50;55.90
43963;DHT22;29622;45.534;9.242;2022-09-09T07:07:29;23.70;55.70
43963;DHT22;29622;45.534;9.242;2022-09-09T07:12:31;24.00;55.20
43963;DHT22;29622;45.534;9.242;2022-09-09T07:17:33;24.30;54.70
43963;DHT22;29622;45.534;9.242;2022-09-09T07:22:34;24.30;54.30
43963;DHT22;29622;45.534;9.242;2022-09-09T07:27:36;24.20;54.40
43963;DHT22;29622;45.534;9.242;2022-09-09T07:32:39;24.30;54.30
43963;DHT22;29622;45.534;9.242;2022-09-09T07:37:40;24.40;53.90
43963;DHT22;29622;45.534;9.242;2022-09-09T07:42:41;24.50;53.60
43963;DHT22;29622;45.534;9.242;2022-09-09T07:47:42;24.40;53.50
43963;DHT22;29622;45.534;9.242;2022-09-09T07:52:43;24.20;53.70
43963;DHT22;29622;45.534;9.242;2022-09-09T07:57:45;24.20;53.80
43963;DHT22;29622;45.534;9.242;2022-09-09T08:02:46;24.10;53.70
43963;DHT22;29622;45.534;9.242;2022-09-09T08:07:47;24.20;53.70
43963;DHT22;29622;45.534;9.242;2022-09-09T08:12:49;24.30;53.60
43963;DHT22;29622;45.534;9.242;2022-09-09T08:17:50;24.50;53.20
43963;DHT22;29622;45.534;9.242;2022-09-09T08:22:50;24.70;52.90
43963;DHT22;29622;45.534;9.242;2022-09-09T08:27:53;24.80;52.50
43963;DHT22;29622;45.534;9.242;2022-09-09T08:32:54;24.90;52.10
43963;DHT22;29622;45.534;9.242;2022-09-09T08:37:56;25.00;51.90
43963;DHT22;29622;45.534;9.242;2022-09-09T08:42:59;25.00;51.40
43963;DHT22;29622;45.534;9.242;2022-09-09T08:58:19;25.10;50.50
43963;DHT22;29622;45.534;9.242;2022-09-09T09:03:43;25.20;49.90
43963;DHT22;29622;45.534;9.242;2022-09-09T09:14:21;25.30;48.90
43963;DHT22;29622;45.534;9.242;2022-09-09T09:19:25;25.40;48.80
43963;DHT22;29622;45.534;9.242;2022-09-09T09:24:46;25.30;48.70
43963;DHT22;29622;45.534;9.242;2022-09-09T09:29:51;25.30;47.90
43963;DHT22;29622;45.534;9.242;2022-09-09T09:34:56;25.40;48.00
43963;DHT22;29622;45.534;9.242;2022-09-09T09:40:14;25.60;47.70
43963;DHT22;29622;45.534;9.242;2022-09-09T09:45:27;25.70;47.10
43963;DHT22;29622;45.534;9.242;2022-09-09T09:50:31;25.70;47.20
43963;DHT22;29622;45.534;9.242;2022-09-09T09:55:34;25.80;47.20
43963;DHT22;29622;45.534;9.242;2022-09-09T10:00:51;25.90;46.90
43963;DHT22;29622;45.534;9.242;2022-09-09T10:05:53;26.10;46.70
43963;DHT22;29622;45.534;9.242;2022-09-09T10:16:39;26.20;46.10
43963;DHT22;29622;45.534;9.242;2022-09-09T10:22:01;26.30;46.20
43963;DHT22;29622;45.534;9.242;2022-09-09T10:42:37;26.60;45.30
43963;DHT22;29622;45.534;9.242;2022-09-09T10:53:27;26.70;44.70
43963;DHT22;29622;45.534;9.242;2022-09-09T10:58:38;26.70;44.60
43963;DHT22;29622;45.534;9.242;2022-09-09T11:03:42;26.70;44.60
43963;DHT22;29622;45.534;9.242;2022-09-09T11:08:43;26.60;44.60
43963;DHT22;29622;45.534;9.242;2022-09-09T11:19:00;26.60;44.40
43963;DHT22;29622;45.534;9.242;2022-09-09T11:24:06;26.80;44.40
43963;DHT22;29622;45.534;9.242;2022-09-09T11:34:52;26.70;44.70
43963;DHT22;29622;45.534;9.242;2022-09-09T11:40:19;26.70;44.20
43963;DHT22;29622;45.534;9.242;2022-09-09T11:45:26;26.70;44.10
43963;DHT22;29622;45.534;9.242;2022-09-09T11:50:32;26.80;44.10
43963;DHT22;29622;45.534;9.242;2022-09-09T11:55:36;26.90;44.00
43963;DHT22;29622;45.534;9.242;2022-09-09T12:00:47;27.10;43.80
43963;DHT22;29622;45.534;9.242;2022-09-09T12:05:47;27.20;43.70
43963;DHT22;29622;45.534;9.242;2022-09-09T12:10:59;27.20;43.60
43963;DHT22;29622;45.534;9.242;2022-09-09T12:16:03;27.20;43.60
43963;DHT22;29622;45.534;9.242;2022-09-09T12:21:32;27.40;43.60
43963;DHT22;29622;45.534;9.242;2022-09-09T12:26:38;27.40;43.10
43963;DHT22;29622;45.534;9.242;2022-09-09T12:32:07;27.60;43.30
43963;DHT22;29622;45.534;9.242;2022-09-09T12:42:20;27.80;43.00
43963;DHT22;29622;45.534;9.242;2022-09-09T12:47:25;27.80;43.10
43963;DHT22;29622;45.534;9.242;2022-09-09T12:52:30;27.70;42.70
43963;DHT22;29622;45.534;9.242;2022-09-09T12:57:36;27.60;42.70
43963;DHT22;29622;45.534;9.242;2022-09-09T13:02:49;27.50;42.60
43963;DHT22;29622;45.534;9.242;2022-09-09T13:07:51;27.60;42.50
43963;DHT22;29622;45.534;9.242;2022-09-09T13:12:52;27.50;42.40
43963;DHT22;29622;45.534;9.242;2022-09-09T13:17:55;27.60;42.50
43963;DHT22;29622;45.534;9.242;2022-09-09T13:22:56;27.90;42.30
43963;DHT22;29622;45.534;9.242;2022-09-09T13:28:00;28.10;42.10
43963;DHT22;29622;45.534;9.242;2022-09-09T13:33:20;28.30;42.00
43963;DHT22;29622;45.534;9.242;2022-09-09T13:38:27;28.40;41.20
43963;DHT22;29622;45.534;9.242;2022-09-09T13:43:42;28.20;41.40
43963;DHT22;29622;45.534;9.242;2022-09-09T13:49:17;28.10;41.30
43963;DHT22;29622;45.534;9.242;2022-09-09T13:54:15;28.00;41.30
43963;DHT22;29622;45.534;9.242;2022-09-09T13:59:18;27.90;41.30
43963;DHT22;29622;45.534;9.242;2022-09-09T14:04:20;27.90;41.30
43963;DHT22;29622;45.534;9.242;2022-09-09T14:09:23;28.00;41.20
43963;DHT22;29622;45.534;9.242;2022-09-09T14:14:24;28.20;41.30
43963;DHT22;29622;45.534;9.242;2022-09-09T14:19:26;28.40;40.80
43963;DHT22;29622;45.534;9.242;2022-09-09T14:24:27;28.40;40.50
43963;DHT22;29622;45.534;9.242;2022-09-09T14:29:28;28.70;40.30
43963;DHT22;29622;45.534;9.242;2022-09-09T14:34:28;28.90;39.70
43963;DHT22;29622;45.534;9.242;2022-09-09T14:39:29;28.90;39.60
43963;DHT22;29622;45.534;9.242;2022-09-09T14:44:30;28.90;39.50
43963;DHT22;29622;45.534;9.242;2022-09-09T14:49:30;29.00;39.50
43963;DHT22;29622;45.534;9.242;2022-09-09T14:54:32;29.50;39.00
43963;DHT22;29622;45.534;9.242;2022-09-09T14:59:32;29.70;38.70
43963;DHT22;29622;45.534;9.242;2022-09-09T15:04:34;29.70;38.50
43963;DHT22;29622;45.534;9.242;2022-09-09T15:09:35;29.50;38.50
43963;DHT22;29622;45.534;9.242;2022-09-09T15:14:37;29.20;38.70
43963;DHT22;29622;45.534;9.242;2022-09-09T15:19:38;29.10;38.70
43963;DHT22;29622;45.534;9.242;2022-09-09T15:24:39;28.90;38.70
43963;DHT22;29622;45.534;9.242;2022-09-09T15:29:40;29.00;38.70
43963;DHT22;29622;45.534;9.242;2022-09-09T15:34:42;29.10;38.50
43963;DHT22;29622;45.534;9.242;2022-09-09T15:39:42;29.10;38.40
43963;DHT22;29622;45.534;9.242;2022-09-09T15:44:44;29.40;38.20
43963;DHT22;29622;45.534;9.242;2022-09-09T15:49:44;29.70;38.00
43963;DHT22;29622;45.534;9.242;2022-09-09T15:54:45;29.80;37.70
43963;DHT22;29622;45.534;9.242;2022-09-09T15:59:46;29.90;37.60
43963;DHT22;29622;45.534;9.242;2022-09-09T16:04:46;29.70;37.40
43963;DHT22;29622;45.534;9.242;2022-09-09T16:09:47;29.60;37.50
43963;DHT22;29622;45.534;9.242;2022-09-09T16:14:48;29.60;38.10
43963;DHT22;29622;45.534;9.242;2022-09-09T16:19:48;29.90;37.40
43963;DHT22;29622;45.534;9.242;2022-09-09T16:24:49;30.20;37.10
43963;DHT22;29622;45.534;9.242;2022-09-09T16:29:49;30.10;36.90
43963;DHT22;29622;45.534;9.242;2022-09-09T16:34:50;29.80;36.80
43963;DHT22;29622;45.534;9.242;2022-09-09T16:39:51;29.50;37.00
43963;DHT22;29622;45.534;9.242;2022-09-09T16:44:52;29.20;37.20
43963;DHT22;29622;45.534;9.242;2022-09-09T16:49:52;29.00;37.30
43963;DHT22;29622;45.534;9.242;2022-09-09T16:54:53;28.80;37.50
43963;DHT22;29622;45.534;9.242;2022-09-09T16:59:54;28.80;37.70
43963;DHT22;29622;45.534;9.242;2022-09-09T17:04:56;28.70;37.70
43963;DHT22;29622;45.534;9.242;2022-09-09T17:09:56;28.70;37.70
43963;DHT22;29622;45.534;9.242;2022-09-09T17:14:57;28.70;37.70
43963;DHT22;29622;45.534;9.242;2022-09-09T17:20:00;28.60;37.90
43963;DHT22;29622;45.534;9.242;2022-09-09T17:25:03;28.50;38.10
43963;DHT22;29622;45.534;9.242;2022-09-09T17:30:04;28.60;38.20
43963;DHT22;29622;45.534;9.242;2022-09-09T17:35:05;28.60;38.20
43963;DHT22;29622;45.534;9.242;2022-09-09T17:40:06;28.50;38.10
43963;DHT22;29622;45.534;9.242;2022-09-09T17:45:07;28.40;38.10
43963;DHT22;29622;45.534;9.242;2022-09-09T17:50:09;28.40;38.20
43963;DHT22;29622;45.534;9.242;2022-09-09T17:55:13;28.30;38.20
43963;DHT22;29622;45.534;9.242;2022-09-09T18:00:14;28.30;38.40
43963;DHT22;29622;45.534;9.242;2022-09-09T18:05:17;28.30;38.40
43963;DHT22;29622;45.534;9.242;2022-09-09T18:10:18;28.20;38.40
43963;DHT22;29622;45.534;9.242;2022-09-09T18:15:19;28.20;38.60
43963;DHT22;29622;45.534;9.242;2022-09-09T18:20:20;28.10;38.60
43963;DHT22;29622;45.534;9.242;2022-09-09T18:25:21;28.00;39.30
43963;DHT22;29622;45.534;9.242;2022-09-09T18:30:22;27.90;38.80
43963;DHT22;29622;45.534;9.242;2022-09-09T18:35:22;27.70;39.00
43963;DHT22;29622;45.534;9.242;2022-09-09T18:40:23;27.60;39.30
43963;DHT22;29622;45.534;9.242;2022-09-09T18:45:25;27.50;39.40
43963;DHT22;29622;45.534;9.242;2022-09-09T18:50:26;27.40;39.60
43963;DHT22;29622;45.534;9.242;2022-09-09T18:55:26;27.40;39.70
43963;DHT22;29622;45.534;9.242;2022-09-09T19:00:28;27.30;39.80
43963;DHT22;29622;45.534;9.242;2022-09-09T19:05:29;27.30;39.90
43963;DHT22;29622;45.534;9.242;2022-09-09T19:10:34;27.20;40.00
43963;DHT22;29622;45.534;9.242;2022-09-09T19:15:35;27.20;40.10
43963;DHT22;29622;45.534;9.242;2022-09-09T19:20:37;27.20;40.20
43963;DHT22;29622;45.534;9.242;2022-09-09T19:25:37;27.10;40.20
43963;DHT22;29622;45.534;9.242;2022-09-09T19:30:38;27.10;40.20
43963;DHT22;29622;45.534;9.242;2022-09-09T19:35:39;27.00;40.30
43963;DHT22;29622;45.534;9.242;2022-09-09T19:40:39;26.90;40.30
43963;DHT22;29622;45.534;9.242;2022-09-09T19:45:40;26.80;40.40
43963;DHT22;29622;45.534;9.242;2022-09-09T19:50:40;26.80;40.60
43963;DHT22;29622;45.534;9.242;2022-09-09T19:55:43;26.80;40.70
43963;DHT22;29622;45.534;9.242;2022-09-09T20:00:44;26.80;40.80
43963;DHT22;29622;45.534;9.242;2022-09-09T20:05:45;26.80;40.80
43963;DHT22;29622;45.534;9.242;2022-09-09T20:10:52;26.80;40.90
43963;DHT22;29622;45.534;9.242;2022-09-09T20:16:04;26.90;41.10
43963;DHT22;29622;45.534;9.242;2022-09-09T20:21:13;26.90;41.20
43963;DHT22;29622;45.534;9.242;2022-09-09T20:26:19;26.80;41.20
43963;DHT22;29622;45.534;9.242;2022-09-09T20:31:26;26.80;41.40
43963;DHT22;29622;45.534;9.242;2022-09-09T20:36:29;26.60;41.60
43963;DHT22;29622;45.534;9.242;2022-09-09T20:41:32;26.60;41.90
43963;DHT22;29622;45.534;9.242;2022-09-09T20:46:35;26.60;41.90
43963;DHT22;29622;45.534;9.242;2022-09-09T20:51:36;26.60;41.90
43963;DHT22;29622;45.534;9.242;2022-09-09T20:56:39;26.60;42.00
43963;DHT22;29622;45.534;9.242;2022-09-09T21:01:40;26.50;42.20
43963;DHT22;29622;45.534;9.242;2022-09-09T21:06:41;26.40;42.50
43963;DHT22;29622;45.534;9.242;2022-09-09T21:11:42;26.30;42.60
43963;DHT22;29622;45.534;9.242;2022-09-09T21:16:42;26.30;42.70
43963;DHT22;29622;45.534;9.242;2022-09-09T21:21:43;26.30;43.00
43963;DHT22;29622;45.534;9.242;2022-09-09T21:26:45;26.20;43.10
43963;DHT22;29622;45.534;9.242;2022-09-09T21:31:46;26.20;43.30
43963;DHT22;29622;45.534;9.242;2022-09-09T21:36:47;26.10;43.50
43963;DHT22;29622;45.534;9.242;2022-09-09T21:41:47;26.10;43.70
43963;DHT22;29622;45.534;9.242;2022-09-09T21:46:48;26.10;43.70
43963;DHT22;29622;45.534;9.242;2022-09-09T21:51:49;25.70;44.30
43963;DHT22;29622;45.534;9.242;2022-09-09T21:56:50;25.50;44.60
43963;DHT22;29622;45.534;9.242;2022-09-09T22:01:53;25.50;45.00
43963;DHT22;29622;45.534;9.242;2022-09-09T22:06:54;25.40;45.20
43963;DHT22;29622;45.534;9.242;2022-09-09T22:11:55;25.20;45.50
43963;DHT22;29622;45.534;9.242;2022-09-09T22:16:55;25.10;45.90
43963;DHT22;29622;45.534;9.242;2022-09-09T22:21:56;25.20;46.00
43963;DHT22;29622;45.534;9.242;2022-09-09T22:26:57;25.20;46.10
43963;DHT22;29622;45.534;9.242;2022-09-09T22:31:57;25.20;46.30
43963;DHT22;29622;45.534;9.242;2022-09-09T22:37:00;25.30;46.20
43963;DHT22;29622;45.534;9.242;2022-09-09T22:42:01;25.50;46.10
43963;DHT22;29622;45.534;9.242;2022-09-09T22:47:03;25.50;45.90
43963;DHT22;29622;45.534;9.242;2022-09-09T22:52:03;25.20;46.10
43963;DHT22;29622;45.534;9.242;2022-09-09T22:57:04;25.00;46.10
43963;DHT22;29622;45.534;9.242;2022-09-09T23:02:05;25.10;45.80
43963;DHT22;29622;45.534;9.242;2022-09-09T23:07:06;25.00;45.20
43963;DHT22;29622;45.534;9.242;2022-09-09T23:12:07;25.00;44.90
43963;DHT22;29622;45.534;9.242;2022-09-09T23:17:09;24.80;44.70
43963;DHT22;29622;45.534;9.242;2022-09-09T23:22:10;24.30;45.30
43963;DHT22;29622;45.534;9.242;2022-09-09T23:27:11;24.30;45.60
43963;DHT22;29622;45.534;9.242;2022-09-09T23:32:12;24.50;45.20
43963;DHT22;29622;45.534;9.242;2022-09-09T23:37:15;24.50;45.30
43963;DHT22;29622;45.534;9.242;2022-09-09T23:42:16;24.50;45.10
43963;DHT22;29622;45.534;9.242;2022-09-09T23:47:17;24.50;45.10
43963;DHT22;29622;45.534;9.242;2022-09-09T23:52:18;24.50;45.30
43963;DHT22;29622;45.534;9.242;2022-09-09T23:57:19;24.50;45.30
